Time;durP1;ratioP1;P1;durP2;ratioP2;P2;SDS_P1;SDS_P2;PMS_P1;PMS_P2;Temp;Humidity;BMP_temperature;BMP_pressure;BME280_temperature;BME280_humidity;BME280_pressure;Samples;Min_cycle;Max_cycle;Signal;HPM_P1;HPM_P2
2023/07/11 00:01:23;;;;;;;8.60;7.80;;;21.40;99.90;;;;;;4989311;28;20489;-82
2023/07/11 00:03:49;;;;;;;7.60;6.90;;;21.40;99.90;;;;;;5025447;23;20403;-83
2023/07/11 00:06:18;;;;;;;8.03;7.23;;;21.40;99.90;;;;;;5038288;28;20427;-84
2023/07/11 00:08:43;;;;;;;8.35;7.50;;;21.40;99.90;;;;;;5030451;28;20930;-83
2023/07/11 00:11:11;;;;;;;8.00;7.20;;;21.40;99.90;;;;;;5041979;28;20486;-84
2023/07/11 00:13:37;;;;;;;7.47;6.88;;;21.30;99.90;;;;;;5051307;28;20383;-83
2023/07/11 00:16:07;;;;;;;7.57;6.88;;;21.30;99.90;;;;;;5038547;28;20379;-84
2023/07/11 00:18:33;;;;;;;7.50;6.90;;;21.30;99.90;;;;;;5036350;28;20913;-84
2023/07/11 00:20:59;;;;;;;8.80;7.45;;;21.20;99.90;;;;;;5025326;28;20417;-84
2023/07/11 00:23:25;;;;;;;8.30;7.60;;;21.10;99.90;;;;;;5021268;28;20834;-83
2023/07/11 00:25:50;;;;;;;7.80;7.20;;;21.90;99.90;;;;;;5018821;28;20401;-83
2023/07/11 00:28:16;;;;;;;7.67;6.97;;;21.10;99.90;;;;;;5020944;28;20384;-84
2023/07/11 00:30:41;;;;;;;8.60;7.80;;;21.20;99.90;;;;;;5020713;28;20873;-83
2023/07/11 00:33:11;;;;;;;9.23;7.37;;;21.20;99.90;;;;;;5021099;28;20972;-84
2023/07/11 00:35:37;;;;;;;7.80;7.10;;;21.20;99.90;;;;;;5016182;28;20524;-83
2023/07/11 00:38:03;;;;;;;7.80;7.10;;;21.20;99.90;;;;;;5000492;28;20390;-83
2023/07/11 00:40:29;;;;;;;7.88;7.07;;;21.10;99.90;;;;;;5000678;28;20394;-83
2023/07/11 00:42:54;;;;;;;8.15;7.35;;;21.20;99.90;;;;;;5017969;28;20405;-84
2023/07/11 00:45:49;;;;;;;8.77;7.87;;;21.20;99.90;;;;;;5020393;28;20408;-84
2023/07/11 00:48:17;;;;;;;8.57;7.45;;;21.10;99.90;;;;;;5011584;28;20422;-83
2023/07/11 00:50:44;;;;;;;8.23;7.18;;;21.10;99.90;;;;;;5000703;28;20456;-84
2023/07/11 00:53:12;;;;;;;7.95;7.30;;;21.20;99.90;;;;;;5000990;28;20521;-83
2023/07/11 00:55:38;;;;;;;9.18;8.18;;;21.10;99.90;;;;;;4999936;28;20394;-83
2023/07/11 00:58:05;;;;;;;8.10;7.40;;;21.10;99.90;;;;;;5004694;28;20910;-83
2023/07/11 01:00:31;;;;;;;8.68;7.97;;;21.10;99.90;;;;;;5018947;28;20419;-84
2023/07/11 01:02:56;;;;;;;9.00;8.10;;;21.20;99.90;;;;;;5018764;28;20393;-83
2023/07/11 01:05:22;;;;;;;8.52;7.63;;;21.10;99.90;;;;;;5019848;28;20587;-83
2023/07/11 01:07:47;;;;;;;8.67;7.73;;;21.50;99.90;;;;;;5004557;28;20406;-83
2023/07/11 01:10:13;;;;;;;10.00;8.10;;;21.20;99.90;;;;;;5000587;28;20390;-83
2023/07/11 01:12:44;;;;;;;7.60;7.00;;;21.20;99.90;;;;;;5001046;28;20469;-83
2023/07/11 01:15:09;;;;;;;7.60;6.90;;;21.20;99.90;;;;;;4999478;28;20401;-83
2023/07/11 01:17:35;;;;;;;8.35;7.55;;;21.20;99.90;;;;;;5013080;28;20767;-83
2023/07/11 01:20:06;;;;;;;8.25;7.45;;;21.00;99.90;;;;;;5019005;28;20415;-84
2023/07/11 01:22:33;;;;;;;8.68;7.97;;;21.00;99.90;;;;;;5020417;28;20389;-84
2023/07/11 01:25:08;;;;;;;8.77;7.97;;;20.90;99.90;;;;;;5009175;28;20461;-83
2023/07/11 01:27:34;;;;;;;8.60;7.90;;;20.90;99.90;;;;;;5004156;28;20404;-83
2023/07/11 01:30:03;;;;;;;8.27;6.90;;;20.90;99.90;;;;;;5019318;28;20420;-83
2023/07/11 01:32:29;;;;;;;8.70;7.80;;;20.80;99.90;;;;;;5018898;28;20389;-83
2023/07/11 01:34:54;;;;;;;8.98;8.02;;;20.90;99.90;;;;;;5019966;28;20410;-83
2023/07/11 01:37:20;;;;;;;8.30;7.50;;;20.80;99.90;;;;;;5018393;28;20411;-83
2023/07/11 01:39:45;;;;;;;8.50;7.70;;;20.80;99.90;;;;;;5027903;28;20498;-83
2023/07/11 01:42:11;;;;;;;8.87;7.53;;;20.80;99.90;;;;;;5024805;28;20396;-84
2023/07/11 01:44:36;;;;;;;8.48;7.68;;;20.80;99.90;;;;;;5018548;28;20427;-83
2023/07/11 01:47:02;;;;;;;8.50;7.80;;;20.80;99.90;;;;;;5019145;28;20434;-83
2023/07/11 01:49:28;;;;;;;8.33;7.53;;;20.70;99.90;;;;;;5018689;28;20384;-84
2023/07/11 01:52:11;;;;;;;8.30;7.50;;;20.70;99.90;;;;;;5009029;28;20402;-83
2023/07/11 01:54:36;;;;;;;7.97;7.38;;;20.60;99.90;;;;;;5010860;28;20513;-83
2023/07/11 01:57:02;;;;;;;8.03;7.23;;;20.60;99.90;;;;;;5019359;28;20965;-83
2023/07/11 01:59:28;;;;;;;7.90;7.30;;;20.60;99.90;;;;;;5017754;28;20400;-83
2023/07/11 02:01:54;;;;;;;8.57;7.87;;;20.50;99.90;;;;;;5018962;28;20392;-84
2023/07/11 02:04:24;;;;;;;8.40;7.60;;;20.50;99.90;;;;;;5009681;28;20497;-83
2023/07/11 02:06:50;;;;;;;9.27;7.95;;;20.40;99.90;;;;;;4998218;28;20406;-83
2023/07/11 02:09:17;;;;;;;8.30;7.60;;;20.50;99.90;;;;;;5005730;28;20396;-83
2023/07/11 02:11:44;;;;;;;8.30;7.50;;;20.40;99.90;;;;;;5018122;28;20423;-83
2023/07/11 02:14:11;;;;;;;8.88;8.07;;;20.40;99.90;;;;;;5018843;28;20389;-83
2023/07/11 02:16:37;;;;;;;9.50;8.50;;;20.30;99.90;;;;;;5018379;28;20731;-83
2023/07/11 02:19:02;;;;;;;9.20;7.73;;;20.30;99.90;;;;;;5011896;28;20510;-83
2023/07/11 02:21:28;;;;;;;8.85;7.80;;;20.40;99.90;;;;;;4999556;28;20394;-83
2023/07/11 02:23:53;;;;;;;8.43;7.70;;;20.30;99.90;;;;;;4999085;28;20756;-83
2023/07/11 02:26:19;;;;;;;8.25;7.43;;;20.40;99.90;;;;;;4999649;28;20391;-83
2023/07/11 02:28:44;;;;;;;8.50;7.80;;;20.30;99.90;;;;;;5012384;28;20419;-83
2023/07/11 02:31:10;;;;;;;9.48;7.28;;;20.20;99.90;;;;;;5021694;28;20456;-83
2023/07/11 02:33:35;;;;;;;7.90;7.20;;;20.20;99.90;;;;;;5026758;28;20477;-83
2023/07/11 02:36:01;;;;;;;8.75;7.90;;;20.20;99.90;;;;;;5018090;28;20389;-84
2023/07/11 02:38:26;;;;;;;8.43;7.73;;;20.30;99.90;;;;;;5014973;28;21006;-83
2023/07/11 02:40:52;;;;;;;8.15;7.47;;;20.20;99.90;;;;;;4999814;28;20390;-83
2023/07/11 02:43:18;;;;;;;7.80;7.10;;;20.20;99.90;;;;;;5002452;28;20401;-83
2023/07/11 02:45:43;;;;;;;9.00;7.70;;;20.20;99.90;;;;;;5017650;28;20457;-83
2023/07/11 02:48:09;;;;;;;8.73;7.93;;;20.20;99.90;;;;;;5016753;28;20416;-83
2023/07/11 02:50:35;;;;;;;9.30;8.17;;;20.20;99.90;;;;;;5017004;28;20894;-83
2023/07/11 02:53:00;;;;;;;8.07;7.37;;;20.20;99.90;;;;;;5016711;28;20450;-83
2023/07/11 02:55:26;;;;;;;8.70;7.90;;;20.20;99.90;;;;;;5018624;28;20458;-83
2023/07/11 02:57:51;;;;;;;9.10;8.20;;;20.10;99.90;;;;;;5019606;28;20922;-83
2023/07/11 03:00:17;;;;;;;9.00;8.20;;;20.20;99.90;;;;;;5018172;28;20442;-83
2023/07/11 03:02:43;;;;;;;8.70;7.85;;;20.10;99.90;;;;;;5017789;28;20401;-83
2023/07/11 03:05:09;;;;;;;8.67;7.87;;;20.00;99.90;;;;;;5014651;28;20414;-82
2023/07/11 03:07:34;;;;;;;8.60;7.70;;;20.10;99.90;;;;;;5017456;28;20393;-83
2023/07/11 03:10:00;;;;;;;8.10;7.40;;;20.00;99.90;;;;;;5018068;28;20931;-83
2023/07/11 03:12:26;;;;;;;8.55;7.85;;;20.20;99.90;;;;;;5016249;28;20389;-83
2023/07/11 03:14:51;;;;;;;8.40;7.60;;;20.20;99.90;;;;;;5017635;28;20890;-84
2023/07/11 03:17:17;;;;;;;8.32;7.72;;;20.00;99.90;;;;;;4999341;28;20880;-83
2023/07/11 03:19:42;;;;;;;8.97;8.17;;;20.10;99.90;;;;;;5011960;28;20400;-83
2023/07/11 03:22:08;;;;;;;8.73;7.93;;;20.00;99.90;;;;;;5018276;28;20875;-83
2023/07/11 03:24:33;;;;;;;9.50;8.20;;;20.00;99.90;;;;;;5017651;28;20435;-83
2023/07/11 03:26:59;;;;;;;8.77;7.97;;;20.00;99.90;;;;;;5017025;28;20913;-83
2023/07/11 03:29:24;;;;;;;9.40;8.60;;;20.00;99.90;;;;;;5010228;28;20447;-83
2023/07/11 03:31:50;;;;;;;9.03;8.23;;;20.00;99.90;;;;;;5017386;28;20389;-82
2023/07/11 03:34:15;;;;;;;9.25;8.10;;;20.10;99.90;;;;;;5005675;28;20783;-83
2023/07/11 03:36:41;;;;;;;8.60;7.80;;;20.00;99.90;;;;;;4997830;28;20402;-83
2023/07/11 03:39:08;;;;;;;9.32;8.52;;;20.00;99.90;;;;;;4997522;28;20402;-82
2023/07/11 03:41:33;;;;;;;9.15;8.25;;;20.00;99.90;;;;;;4997071;28;20398;-83
2023/07/11 03:43:59;;;;;;;8.57;7.78;;;20.00;99.90;;;;;;5019342;28;20424;-82
2023/07/11 03:46:25;;;;;;;8.77;7.97;;;20.00;99.90;;;;;;5030984;28;20432;-82
2023/07/11 03:48:52;;;;;;;9.07;8.27;;;19.90;99.90;;;;;;5030276;28;20408;-82
2023/07/11 03:51:18;;;;;;;9.10;8.20;;;20.00;99.90;;;;;;5017500;28;20405;-83
2023/07/11 03:53:43;;;;;;;8.93;8.13;;;20.00;99.90;;;;;;4999830;28;20485;-83
2023/07/11 03:56:09;;;;;;;9.30;8.00;;;20.10;99.90;;;;;;4997659;28;20378;-83
2023/07/11 03:58:34;;;;;;;9.50;8.70;;;20.10;99.90;;;;;;4995408;28;20653;-83
2023/07/11 04:01:00;;;;;;;9.10;8.30;;;20.20;99.90;;;;;;5005279;28;20389;-83
2023/07/11 04:03:25;;;;;;;9.37;8.47;;;20.20;99.90;;;;;;5016723;28;20435;-83
2023/07/11 04:05:53;;;;;;;8.23;7.53;;;20.10;99.90;;;;;;5016399;28;20415;-82
2023/07/11 04:08:19;;;;;;;9.75;8.93;;;20.20;99.90;;;;;;5011049;28;20398;-83
2023/07/11 04:10:44;;;;;;;8.82;8.13;;;20.20;99.90;;;;;;4996921;28;20453;-82
2023/07/11 04:13:10;;;;;;;9.20;8.30;;;20.10;99.90;;;;;;4994534;28;20386;-82
2023/07/11 04:15:35;;;;;;;9.20;8.40;;;20.10;99.90;;;;;;4995284;28;20955;-82
2023/07/11 04:18:01;;;;;;;9.40;8.60;;;20.10;99.90;;;;;;4998025;28;20386;-83
2023/07/11 04:20:26;;;;;;;9.02;8.23;;;20.10;99.90;;;;;;5014603;28;20396;-82
2023/07/11 04:22:52;;;;;;;8.63;7.70;;;20.20;99.90;;;;;;5015301;28;20389;-82
2023/07/11 04:25:17;;;;;;;9.40;8.60;;;20.30;99.90;;;;;;5013671;28;20421;-82
2023/07/11 04:27:43;;;;;;;9.27;8.37;;;20.40;99.90;;;;;;5002910;28;20992;-82
2023/07/11 04:30:09;;;;;;;9.30;8.40;;;20.40;99.90;;;;;;5010970;28;20433;-82
2023/07/11 04:32:35;;;;;;;9.10;8.20;;;20.30;99.90;;;;;;5006455;28;20435;-82
2023/07/11 04:35:01;;;;;;;9.27;8.40;;;20.40;99.90;;;;;;5004257;28;20415;-82
2023/07/11 04:37:26;;;;;;;9.13;8.25;;;20.40;99.90;;;;;;5004587;28;20773;-82
2023/07/11 04:39:52;;;;;;;9.13;8.10;;;20.40;99.90;;;;;;5002432;28;20396;-81
2023/07/11 04:42:18;;;;;;;9.15;8.35;;;20.50;99.90;;;;;;5001053;28;20391;-82
2023/07/11 04:44:43;;;;;;;8.80;7.90;;;20.50;99.90;;;;;;5006445;28;20474;-83
2023/07/11 04:47:09;;;;;;;9.00;8.10;;;20.50;99.90;;;;;;5013129;28;20374;-82
2023/07/11 04:49:35;;;;;;;9.07;8.20;;;20.40;99.90;;;;;;5012212;28;20409;-82
2023/07/11 04:52:00;;;;;;;9.17;8.10;;;20.40;99.90;;;;;;5013717;28;20438;-82
2023/07/11 04:54:26;;;;;;;9.10;8.20;;;20.50;99.90;;;;;;5013608;28;20402;-82
2023/07/11 04:56:56;;;;;;;9.90;8.90;;;20.50;99.90;;;;;;5026141;28;20387;-83
2023/07/11 04:59:21;;;;;;;8.30;7.50;;;20.50;99.90;;;;;;5013039;28;20386;-83
2023/07/11 05:01:47;;;;;;;9.90;8.90;;;20.60;99.90;;;;;;5012540;28;20395;-81
2023/07/11 05:04:12;;;;;;;9.65;8.75;;;20.70;99.90;;;;;;5012927;28;20418;-81
2023/07/11 05:06:40;;;;;;;9.77;8.80;;;20.80;99.90;;;;;;5016179;28;20404;-82
2023/07/11 05:09:06;;;;;;;8.88;8.07;;;20.70;99.90;;;;;;5021665;28;20409;-83
2023/07/11 05:11:32;;;;;;;10.45;8.73;;;20.70;99.90;;;;;;5012205;28;20438;-83
2023/07/11 05:13:57;;;;;;;9.50;8.60;;;20.80;99.90;;;;;;5016302;28;20399;-83
2023/07/11 05:16:28;;;;;;;9.30;7.90;;;20.90;99.90;;;;;;5017397;28;20425;-83
2023/07/11 05:18:55;;;;;;;9.07;8.25;;;20.90;99.90;;;;;;5024801;28;20384;-83
2023/07/11 05:21:21;;;;;;;9.30;8.50;;;21.00;99.90;;;;;;5025870;28;20404;-83
2023/07/11 05:23:48;;;;;;;8.90;8.15;;;21.10;99.90;;;;;;5016794;28;20414;-83
2023/07/11 05:26:14;;;;;;;9.68;8.80;;;21.10;99.90;;;;;;5018113;28;20486;-83
2023/07/11 05:28:40;;;;;;;9.00;8.20;;;21.10;99.90;;;;;;5029024;28;20402;-83
2023/07/11 05:31:07;;;;;;;9.13;8.23;;;21.20;99.90;;;;;;5036651;28;20400;-83
2023/07/11 05:33:33;;;;;;;8.90;8.00;;;21.10;99.90;;;;;;5036331;28;20389;-83
2023/07/11 05:36:15;;;;;;;8.88;8.18;;;21.10;99.90;;;;;;5020708;28;20390;-83
2023/07/11 05:38:41;;;;;;;8.80;8.10;;;21.20;99.90;;;;;;5016719;28;20374;-83
2023/07/11 05:41:07;;;;;;;9.00;8.20;;;21.30;99.90;;;;;;5017285;28;20466;-83
2023/07/11 05:43:33;;;;;;;8.23;7.45;;;21.40;99.90;;;;;;5017691;28;20422;-83
2023/07/11 05:45:58;;;;;;;9.00;8.10;;;21.50;99.90;;;;;;5024308;28;20434;-83
2023/07/11 05:48:24;;;;;;;9.77;8.77;;;21.60;99.90;;;;;;5016292;28;20497;-83
2023/07/11 05:50:59;;;;;;;8.95;8.05;;;21.60;99.90;;;;;;5016869;28;20425;-82
2023/07/11 05:53:26;;;;;;;8.90;8.10;;;21.70;99.90;;;;;;5016489;28;20403;-83
2023/07/11 05:55:52;;;;;;;9.48;8.57;;;21.80;99.90;;;;;;5032620;28;20734;-83
2023/07/11 05:58:17;;;;;;;9.75;8.80;;;21.90;99.90;;;;;;5036365;28;20373;-82
2023/07/11 06:00:43;;;;;;;10.25;8.02;;;22.00;99.90;;;;;;5035811;28;20415;-83
2023/07/11 06:03:08;;;;;;;8.80;7.90;;;22.10;99.90;;;;;;5029165;28;20394;-83
2023/07/11 06:05:34;;;;;;;9.45;8.55;;;22.20;99.90;;;;;;4999654;28;20904;-84
2023/07/11 06:08:00;;;;;;;9.13;8.32;;;22.30;99.90;;;;;;4999526;28;20389;-84
2023/07/11 06:10:26;;;;;;;9.00;8.20;;;22.50;99.90;;;;;;5012389;28;20535;-83
2023/07/11 06:12:51;;;;;;;9.48;8.68;;;22.60;99.90;;;;;;5018852;28;20736;-84
2023/07/11 06:15:17;;;;;;;9.70;8.90;;;22.80;99.90;;;;;;5017235;28;20419;-83
2023/07/11 06:17:43;;;;;;;8.68;7.90;;;22.90;99.90;;;;;;5017069;28;20490;-84
2023/07/11 06:20:09;;;;;;;9.63;8.73;;;23.00;99.90;;;;;;5011489;28;20401;-84
2023/07/11 06:22:35;;;;;;;10.13;8.30;;;23.10;99.90;;;;;;5017296;28;20380;-84
2023/07/11 06:25:02;;;;;;;9.10;8.30;;;23.40;99.90;;;;;;5010687;28;20445;-84
2023/07/11 06:27:28;;;;;;;10.18;9.27;;;23.50;99.90;;;;;;4999827;28;20406;-83
2023/07/11 06:29:54;;;;;;;8.68;7.90;;;23.60;99.90;;;;;;4996724;28;20395;-84
2023/07/11 06:32:19;;;;;;;8.60;7.80;;;23.70;99.90;;;;;;5000309;28;20437;-83
2023/07/11 06:34:45;;;;;;;8.83;7.93;;;23.70;99.90;;;;;;4998088;28;20398;-84
2023/07/11 06:37:11;;;;;;;9.30;8.40;;;23.60;99.90;;;;;;5000090;28;20404;-84
2023/07/11 06:39:37;;;;;;;8.37;7.60;;;23.60;99.90;;;;;;5008330;28;20399;-84
2023/07/11 06:42:03;;;;;;;8.65;7.85;;;23.60;99.90;;;;;;5014561;28;20393;-85
2023/07/11 06:44:30;;;;;;;8.70;8.00;;;23.60;99.90;;;;;;5014050;28;20405;-84
2023/07/11 06:46:55;;;;;;;8.77;8.00;;;23.60;99.90;;;;;;5014193;28;20426;-84
2023/07/11 06:49:21;;;;;;;8.23;7.33;;;23.60;99.90;;;;;;5015759;28;20468;-84
2023/07/11 06:51:48;;;;;;;8.90;8.00;;;23.60;99.90;;;;;;5013228;28;20469;-84
2023/07/11 06:54:13;;;;;;;9.10;8.30;;;23.70;99.90;;;;;;5024954;28;20435;-85
2023/07/11 06:56:39;;;;;;;8.90;8.20;;;23.80;99.90;;;;;;4998628;28;20395;-84
2023/07/11 06:59:04;;;;;;;9.33;8.13;;;23.90;99.90;;;;;;4995874;28;20408;-84
2023/07/11 07:01:30;;;;;;;9.60;8.60;;;24.10;99.90;;;;;;4999092;28;20481;-85
2023/07/11 07:03:55;;;;;;;9.30;8.30;;;24.20;99.90;;;;;;4999785;28;20481;-84
2023/07/11 07:06:21;;;;;;;8.83;8.03;;;24.50;99.90;;;;;;5011358;28;20784;-84
2023/07/11 07:08:47;;;;;;;9.73;8.60;;;24.70;99.90;;;;;;5015880;28;20393;-85
2023/07/11 07:11:12;;;;;;;8.88;8.10;;;24.80;99.90;;;;;;5004801;28;20390;-85
2023/07/11 07:13:38;;;;;;;9.50;8.60;;;24.80;99.90;;;;;;5003188;28;20394;-85
2023/07/11 07:16:04;;;;;;;9.68;8.68;;;24.80;99.90;;;;;;5001278;28;20459;-87
2023/07/11 07:18:32;;;;;;;9.17;8.27;;;24.90;99.90;;;;;;5001053;28;20489;-86
2023/07/11 07:20:58;;;;;;;8.90;8.10;;;25.00;99.90;;;;;;4995685;28;20746;-85
2023/07/11 07:23:25;;;;;;;9.23;8.18;;;25.00;99.90;;;;;;5002030;28;20618;-84
2023/07/11 07:25:53;;;;;;;9.10;8.30;;;25.00;99.90;;;;;;5015831;28;20415;-85
2023/07/11 07:28:20;;;;;;;9.50;8.50;;;25.30;99.90;;;;;;5004037;28;20405;-85
2023/07/11 07:30:46;;;;;;;9.38;7.55;;;25.10;99.90;;;;;;4994553;28;20389;-85
2023/07/11 07:33:12;;;;;;;8.70;7.90;;;25.20;99.90;;;;;;5008231;28;20442;-85
2023/07/11 07:35:39;;;;;;;8.70;8.00;;;25.20;99.90;;;;;;5017924;28;20388;-85
2023/07/11 07:38:04;;;;;;;9.55;8.30;;;25.50;99.90;;;;;;5035720;28;20432;-85
2023/07/11 07:40:30;;;;;;;9.63;8.70;;;25.60;99.90;;;;;;5034303;28;20443;-86
2023/07/11 07:42:55;;;;;;;11.03;8.53;;;25.70;99.90;;;;;;5024768;28;20420;-85
2023/07/11 07:45:21;;;;;;;10.00;8.57;;;25.70;99.90;;;;;;5015076;28;20423;-85
2023/07/11 07:47:46;;;;;;;8.90;7.88;;;25.70;99.90;;;;;;5013010;28;20415;-86
2023/07/11 07:50:12;;;;;;;9.27;8.37;;;25.70;99.90;;;;;;5014501;28;20389;-85
2023/07/11 07:52:37;;;;;;;9.95;8.23;;;25.70;99.90;;;;;;5014532;28;20400;-84
2023/07/11 07:55:03;;;;;;;9.53;8.63;;;25.80;99.90;;;;;;5014256;28;20755;-85
2023/07/11 07:57:29;;;;;;;9.27;8.48;;;25.90;99.90;;;;;;5002626;28;20417;-85
2023/07/11 07:59:54;;;;;;;9.40;8.40;;;26.00;99.90;;;;;;4993132;28;20410;-85
2023/07/11 08:02:20;;;;;;;9.30;8.40;;;26.20;99.90;;;;;;4993850;28;20401;-85
2023/07/11 08:04:47;;;;;;;9.73;8.40;;;26.10;99.90;;;;;;4992320;28;20470;-85
2023/07/11 08:07:14;;;;;;;9.03;8.13;;;26.30;99.90;;;;;;4996128;28;20481;-85
2023/07/11 08:09:39;;;;;;;9.07;8.25;;;26.40;99.90;;;;;;4999370;28;20386;-85
2023/07/11 08:12:10;;;;;;;9.20;8.20;;;26.50;99.90;;;;;;5018792;28;20795;-85
2023/07/11 08:14:41;;;;;;;9.95;8.85;;;26.50;99.90;;;;;;4996155;28;20765;-85
2023/07/11 08:17:09;;;;;;;9.53;8.50;;;26.70;99.90;;;;;;4999219;28;20400;-86
2023/07/11 08:19:35;;;;;;;10.45;8.52;;;26.70;99.90;;;;;;5012217;28;20931;-85
2023/07/11 08:22:00;;;;;;;9.20;8.25;;;26.60;99.90;;;;;;5011722;28;20415;-85
2023/07/11 08:24:26;;;;;;;8.77;8.07;;;26.70;99.90;;;;;;5013157;28;20408;-85
2023/07/11 08:26:52;;;;;;;11.32;8.40;;;26.80;99.90;;;;;;5013201;28;20407;-85
2023/07/11 08:29:17;;;;;;;9.03;8.10;;;26.80;99.90;;;;;;5004430;28;20404;-85
2023/07/11 08:31:43;;;;;;;9.40;8.50;;;26.90;99.90;;;;;;5012964;28;20467;-85
2023/07/11 08:34:09;;;;;;;9.20;8.30;;;26.90;99.90;;;;;;5011462;28;20397;-85
2023/07/11 08:36:37;;;;;;;8.90;8.10;;;26.90;99.90;;;;;;5014320;28;20396;-85
2023/07/11 08:39:02;;;;;;;9.20;8.30;;;27.10;99.90;;;;;;4998050;28;20449;-85
2023/07/11 08:41:48;;;;;;;9.47;8.57;;;27.20;99.90;;;;;;5003387;28;20412;-85
2023/07/11 08:44:36;;;;;;;9.00;8.10;;;27.30;99.90;;;;;;5013994;28;20509;-85
2023/07/11 08:47:28;;;;;;;9.60;8.90;;;27.40;99.90;;;;;;5013651;28;20392;-86
2023/07/11 08:50:15;;;;;;;10.00;8.85;;;27.50;99.90;;;;;;5014877;28;20805;-85
2023/07/11 08:52:43;;;;;;;10.00;8.55;;;27.50;99.90;;;;;;5005361;28;20394;-86
2023/07/11 08:55:17;;;;;;;9.13;8.38;;;27.60;99.90;;;;;;4995765;28;20402;-85
2023/07/11 08:57:47;;;;;;;11.20;8.35;;;27.60;99.90;;;;;;4996925;28;20477;-85
2023/07/11 09:00:17;;;;;;;9.48;8.50;;;27.40;99.90;;;;;;4995414;28;20437;-85
2023/07/11 09:02:56;;;;;;;9.95;8.48;;;27.50;99.90;;;;;;4999442;28;20404;-85
2023/07/11 09:05:38;;;;;;;10.93;8.50;;;27.60;99.90;;;;;;5014306;28;20444;-85
2023/07/11 09:08:04;;;;;;;9.05;8.25;;;27.80;99.90;;;;;;5014510;28;21069;-85
2023/07/11 09:10:48;;;;;;;9.70;8.80;;;28.00;99.90;;;;;;5015285;28;20385;-86
2023/07/11 09:13:24;;;;;;;8.95;8.15;;;28.00;99.90;;;;;;5009174;28;20892;-85
2023/07/11 09:16:17;;;;;;;9.30;8.40;;;28.10;99.90;;;;;;4997169;28;20418;-86
2023/07/11 09:18:57;;;;;;;9.70;8.70;;;28.40;99.90;;;;;;4999831;28;20411;-85
2023/07/11 09:21:38;;;;;;;9.50;8.48;;;28.40;99.90;;;;;;5015625;28;20385;-85
2023/07/11 09:24:30;;;;;;;9.00;8.20;;;28.30;99.90;;;;;;5013679;28;20392;-85
2023/07/11 09:27:16;;;;;;;9.23;8.43;;;28.30;99.90;;;;;;5013275;28;20393;-85
2023/07/11 09:29:44;;;;;;;10.60;8.38;;;28.30;99.90;;;;;;4993422;28;20402;-86
2023/07/11 09:32:11;;;;;;;11.00;8.70;;;28.50;99.90;;;;;;4995662;28;20903;-85
2023/07/11 09:34:40;;;;;;;8.85;8.02;;;28.60;99.90;;;;;;4994410;28;20450;-85
2023/07/11 09:37:12;;;;;;;8.50;7.80;;;28.70;99.90;;;;;;4994930;28;20738;-85
2023/07/11 09:39:51;;;;;;;9.63;8.20;;;28.60;99.90;;;;;;4993332;28;20480;-85
2023/07/11 09:42:42;;;;;;;9.60;8.70;;;28.70;99.90;;;;;;4997490;28;20445;-86
2023/07/11 09:45:13;;;;;;;8.25;7.55;;;28.80;99.90;;;;;;5013821;28;20412;-85
2023/07/11 09:47:41;;;;;;;9.82;8.40;;;28.90;99.90;;;;;;5012647;28;20427;-85
2023/07/11 09:50:34;;;;;;;8.77;7.72;;;29.10;99.90;;;;;;5016516;28;20472;-85
2023/07/11 09:53:01;;;;;;;9.65;7.90;;;29.10;99.90;;;;;;5005782;28;20385;-85
2023/07/11 09:55:34;;;;;;;10.07;8.13;;;29.10;99.90;;;;;;5014784;28;20412;-85
2023/07/11 09:58:03;;;;;;;7.95;7.20;;;29.40;99.90;;;;;;5012680;28;20389;-85
2023/07/11 10:00:29;;;;;;;8.68;7.97;;;29.50;99.90;;;;;;5012458;28;20396;-85
2023/07/11 10:02:58;;;;;;;7.88;7.18;;;29.60;99.90;;;;;;5015577;28;20393;-84
2023/07/11 10:05:24;;;;;;;8.07;7.38;;;29.70;99.90;;;;;;5014265;28;20417;-86
2023/07/11 10:08:01;;;;;;;8.20;7.40;;;29.80;99.90;;;;;;5015069;28;20388;-85
2023/07/11 10:10:27;;;;;;;8.80;8.00;;;29.50;99.90;;;;;;5013450;28;20770;-85
2023/07/11 10:12:53;;;;;;;8.50;7.67;;;29.70;99.90;;;;;;5014437;28;20392;-86
2023/07/11 10:15:23;;;;;;;8.30;7.40;;;29.80;99.90;;;;;;5014889;28;20389;-85
2023/07/11 10:17:54;;;;;;;8.50;7.70;;;29.90;99.90;;;;;;5016358;28;20427;-86
2023/07/11 10:20:21;;;;;;;8.43;7.72;;;30.10;99.90;;;;;;5008422;28;20472;-86
2023/07/11 10:23:00;;;;;;;8.15;7.30;;;30.10;99.90;;;;;;5012138;28;20758;-85
2023/07/11 10:25:28;;;;;;;7.93;7.22;;;30.10;99.90;;;;;;5013053;28;20405;-85
2023/07/11 10:28:25;;;;;;;9.27;8.23;;;30.10;99.90;;;;;;5007008;28;20390;-85
2023/07/11 10:30:51;;;;;;;10.38;7.93;;;30.10;99.90;;;;;;4994363;28;20394;-85
2023/07/11 10:33:25;;;;;;;8.57;7.88;;;30.20;99.90;;;;;;4994135;28;20939;-85
2023/07/11 10:36:19;;;;;;;9.98;7.65;;;30.30;99.90;;;;;;4993421;28;20405;-85
2023/07/11 10:38:54;;;;;;;8.88;7.97;;;30.40;99.90;;;;;;5000575;28;20484;-86
2023/07/11 10:41:27;;;;;;;8.43;7.72;;;30.30;99.90;;;;;;5014559;28;20453;-86
2023/07/11 10:43:54;;;;;;;9.25;8.10;;;30.50;99.90;;;;;;5012334;28;20475;-86
2023/07/11 10:46:42;;;;;;;8.95;8.15;;;30.60;99.90;;;;;;5023194;28;20473;-85
2023/07/11 10:49:17;;;;;;;8.10;7.30;;;30.70;99.90;;;;;;5019443;28;20402;-86
2023/07/11 10:51:55;;;;;;;9.05;8.15;;;30.70;99.90;;;;;;5023685;28;20442;-85
2023/07/11 10:54:44;;;;;;;8.45;7.65;;;30.90;99.90;;;;;;5029436;28;20798;-85
2023/07/11 10:57:37;;;;;;;7.90;7.30;;;31.00;99.90;;;;;;5033256;28;20384;-87
2023/07/11 11:00:08;;;;;;;8.55;6.75;;;31.10;99.90;;;;;;5020206;28;20529;-87
2023/07/11 11:03:12;;;;;;;7.72;6.90;;;31.10;99.90;;;;;;5010370;28;20444;-85
2023/07/11 11:06:04;;;;;;;9.18;7.07;;;31.20;99.90;;;;;;4997233;28;20422;-86
2023/07/11 11:08:51;;;;;;;8.10;7.43;;;31.40;99.90;;;;;;5013638;28;20502;-87
2023/07/11 11:11:25;;;;;;;8.00;6.90;;;31.50;99.90;;;;;;5012120;28;20475;-85
2023/07/11 11:14:10;;;;;;;9.45;7.53;;;31.50;99.90;;;;;;5011041;28;20403;-86
2023/07/11 11:16:50;;;;;;;10.02;7.25;;;31.60;99.90;;;;;;5000221;28;20408;-86
2023/07/11 11:19:35;;;;;;;8.15;7.30;;;31.70;99.90;;;;;;4992085;28;20390;-86
2023/07/11 11:22:14;;;;;;;7.13;6.43;;;31.70;99.90;;;;;;4995936;28;20445;-85
2023/07/11 11:25:00;;;;;;;7.25;6.60;;;31.70;99.90;;;;;;5012884;28;20517;-87
2023/07/11 11:27:48;;;;;;;7.43;6.80;;;31.90;99.90;;;;;;5012208;28;20456;-85
2023/07/11 11:30:46;;;;;;;9.25;6.40;;;32.10;99.90;;;;;;5012968;28;21014;-84
2023/07/11 11:33:19;;;;;;;7.03;6.38;;;32.70;99.90;;;;;;5011394;28;20806;-87
2023/07/11 11:36:15;;;;;;;7.25;6.60;;;32.50;99.90;;;;;;5009928;28;20405;-86
2023/07/11 11:38:58;;;;;;;7.45;6.75;;;32.70;99.90;;;;;;4992065;28;20405;-87
2023/07/11 11:41:58;;;;;;;7.20;6.50;;;33.20;99.90;;;;;;4993425;28;20410;-84
2023/07/11 11:44:43;;;;;;;7.50;6.25;;;33.20;99.90;;;;;;4971164;28;20489;-86
2023/07/11 11:47:10;;;;;;;6.70;6.00;;;33.80;99.90;;;;;;4995391;28;20405;-85
2023/07/11 11:49:38;;;;;;;10.23;6.68;;;34.40;30.70;;;;;;4993635;28;20454;-85
2023/07/11 11:52:05;;;;;;;5.80;5.40;;;34.70;1.00;;;;;;4993247;28;20394;-85
2023/07/11 11:54:38;;;;;;;6.50;5.90;;;34.90;33.00;;;;;;5010343;28;20408;-85
2023/07/11 11:57:04;;;;;;;9.70;6.20;;;35.20;33.30;;;;;;5012735;28;20956;-86
2023/07/11 11:59:31;;;;;;;6.85;6.15;;;35.30;72.90;;;;;;5011450;28;20396;-86
2023/07/11 12:02:01;;;;;;;7.22;6.47;;;35.50;15.80;;;;;;5007301;28;20405;-85
2023/07/11 12:04:27;;;;;;;6.95;6.25;;;35.40;1.00;;;;;;5010720;28;21077;-86
2023/07/11 12:07:10;;;;;;;7.28;6.07;;;35.10;1.00;;;;;;5011246;28;20472;-84
2023/07/11 12:09:53;;;;;;;6.85;5.90;;;35.20;1.00;;;;;;5010360;28;20808;-86
2023/07/11 12:12:21;;;;;;;7.85;6.07;;;35.80;90.90;;;;;;5011326;28;20395;-83
2023/07/11 12:14:50;;;;;;;7.90;6.22;;;36.10;1.00;;;;;;5011222;28;20393;-86
2023/07/11 12:17:31;;;;;;;6.73;6.03;;;36.00;49.30;;;;;;5011560;28;20484;-84
2023/07/11 12:20:02;;;;;;;6.53;5.93;;;35.40;1.00;;;;;;5009515;28;20484;-86
2023/07/11 12:22:32;;;;;;;6.90;6.30;;;36.00;1.00;;;;;;5012431;28;20389;-87
2023/07/11 12:25:03;;;;;;;6.68;5.97;;;35.70;1.00;;;;;;5008428;28;20500;-86
2023/07/11 12:27:28;;;;;;;8.70;6.20;;;36.30;17.10;;;;;;5012727;28;20449;-85
2023/07/11 12:29:54;;;;;;;6.90;6.10;;;35.60;1.00;;;;;;5019533;28;20835;-85
2023/07/11 12:32:32;;;;;;;7.80;6.38;;;35.80;1.00;;;;;;5024251;28;20426;-85
2023/07/11 12:35:04;;;;;;;7.90;6.18;;;35.30;1.00;;;;;;5008598;28;20392;-85
2023/07/11 12:38:05;;;;;;;6.43;5.82;;;35.70;1.00;;;;;;5004919;28;20411;-85
2023/07/11 12:40:40;;;;;;;9.10;5.70;;;35.90;1.00;;;;;;5009220;28;20400;-85
2023/07/11 12:43:26;;;;;;;6.22;5.63;;;36.30;1.00;;;;;;5015475;28;20946;-84
2023/07/11 12:46:22;;;;;;;7.07;5.40;;;36.20;1.00;;;;;;5031360;28;20414;-85
2023/07/11 12:48:50;;;;;;;6.43;5.82;;;36.00;6.30;;;;;;5011174;28;20399;-84
2023/07/11 12:51:26;;;;;;;6.23;5.63;;;36.20;1.00;;;;;;5037866;28;20405;-84
2023/07/11 12:54:16;;;;;;;8.23;5.65;;;35.80;1.00;;;;;;5030833;28;20389;-85
2023/07/11 12:56:44;;;;;;;8.35;6.07;;;35.70;1.00;;;;;;4997162;28;20411;-84
2023/07/11 12:59:27;;;;;;;8.35;6.00;;;36.00;1.00;;;;;;5012248;28;20801;-86
2023/07/11 13:01:56;;;;;;;6.80;5.57;;;36.30;1.00;;;;;;5014689;28;20456;-86